Time;durP1;ratioP1;P1;durP2;ratioP2;P2;SDS_P1;SDS_P2;PMS_P1;PMS_P2;Temp;Humidity;BMP_temperature;BMP_pressure;BME280_temperature;BME280_humidity;BME280_pressure;Samples;Min_cycle;Max_cycle;Signal;HPM_P1;HPM_P2
2023/03/02 00:00:35;;;;;;;0.30;0.30;;;;;;;5.84;90.83;102047.00;5000629;28;20309;-54
2023/03/02 00:03:03;;;;;;;0.55;0.55;;;;;;;5.57;91.53;102050.28;5001528;28;20034;-50
2023/03/02 00:05:29;;;;;;;1.30;1.20;;;;;;;5.56;91.68;102061.22;5001874;28;20130;-49
2023/03/02 00:07:57;;;;;;;0.45;0.45;;;;;;;5.38;92.27;102052.88;5009225;28;20057;-47
2023/03/02 00:10:24;;;;;;;1.67;0.63;;;;;;;5.46;92.11;102049.59;5010862;28;20563;-46
2023/03/02 00:12:49;;;;;;;0.65;0.63;;;;;;;5.56;91.01;102055.88;5000591;28;20043;-45
2023/03/02 00:15:15;;;;;;;0.40;0.40;;;;;;;5.33;90.94;102047.59;5013207;28;20030;-45
2023/03/02 00:17:40;;;;;;;0.45;0.45;;;;;;;5.34;91.37;102046.50;5010926;28;20033;-49
2023/03/02 00:20:09;;;;;;;0.80;0.80;;;;;;;5.08;91.75;102052.44;5004332;28;20538;-46
2023/03/02 00:22:36;;;;;;;0.73;0.70;;;;;;;5.19;92.19;102049.38;5003979;28;20026;-50
2023/03/02 00:25:03;;;;;;;1.75;0.65;;;;;;;5.20;92.50;102055.50;5010029;28;20030;-49
2023/03/02 00:27:29;;;;;;;0.50;0.50;;;;;;;5.26;92.61;102051.69;5012569;28;20116;-47
2023/03/02 00:29:55;;;;;;;0.75;0.75;;;;;;;5.40;92.42;102048.06;5011351;28;20505;-55
2023/03/02 00:32:21;;;;;;;0.68;0.63;;;;;;;5.35;91.26;102042.78;5006791;28;20393;-48
2023/03/02 00:34:47;;;;;;;0.47;0.47;;;;;;;5.48;91.83;102043.94;4997240;28;20038;-48
2023/03/02 00:37:12;;;;;;;0.85;0.85;;;;;;;5.53;90.41;102040.44;5011156;28;20022;-46
2023/03/02 00:39:38;;;;;;;0.63;0.63;;;;;;;5.41;91.00;102030.97;5002350;28;20038;-48
2023/03/02 00:42:03;;;;;;;0.30;0.30;;;;;;;5.50;91.20;102039.13;5009358;28;20132;-48
2023/03/02 00:44:29;;;;;;;0.50;0.50;;;;;;;5.58;90.96;102033.16;5012589;28;20021;-48
2023/03/02 00:46:54;;;;;;;0.82;0.55;;;;;;;5.47;89.67;102032.50;5010388;28;20040;-46
2023/03/02 00:49:20;;;;;;;1.27;1.20;;;;;;;5.48;90.92;102027.91;5000623;28;20033;-47
2023/03/02 00:51:46;;;;;;;1.30;1.05;;;;;;;5.26;91.35;102033.81;5005582;28;20030;-47
2023/03/02 00:54:12;;;;;;;3.63;1.17;;;;;;;5.32;91.10;102024.63;5007868;28;20852;-51
2023/03/02 00:56:37;;;;;;;6.32;1.55;;;;;;;5.19;91.21;102024.53;5006298;28;20049;-52
2023/03/02 00:59:25;;;;;;;0.40;0.40;;;;;;;5.27;90.87;102024.72;5008820;28;20034;-53
2023/03/02 01:01:59;;;;;;;0.73;0.73;;;;;;;5.19;90.66;102028.00;5003901;28;20084;-45
2023/03/02 01:04:30;;;;;;;1.05;0.55;;;;;;;5.20;90.54;102005.59;5003897;28;20031;-47
2023/03/02 01:06:56;;;;;;;0.50;0.50;;;;;;;4.95;90.65;102002.41;5002674;28;20038;-47
2023/03/02 01:09:22;;;;;;;1.25;0.85;;;;;;;4.95;91.38;102000.53;5001232;28;20022;-53
2023/03/02 01:11:48;;;;;;;0.73;0.73;;;;;;;4.95;91.66;102007.72;5000494;28;20563;-45
2023/03/02 01:14:14;;;;;;;0.20;0.20;;;;;;;4.97;91.25;102002.91;5008771;28;20057;-46
2023/03/02 01:16:40;;;;;;;0.98;0.93;;;;;;;5.02;90.98;102006.31;5010562;28;20045;-46
2023/03/02 01:19:05;;;;;;;0.63;0.60;;;;;;;5.01;91.43;101996.72;5010907;28;20057;-52
2023/03/02 01:21:31;;;;;;;2.92;0.73;;;;;;;5.05;91.29;101989.72;4999168;28;20041;-55
2023/03/02 01:23:56;;;;;;;0.80;0.80;;;;;;;5.08;91.19;101989.16;5006660;28;20045;-56
2023/03/02 01:26:22;;;;;;;0.50;0.50;;;;;;;5.18;90.94;101989.06;5009041;28;20095;-48
2023/03/02 01:28:49;;;;;;;0.50;0.50;;;;;;;5.23;90.22;101985.50;5010241;28;20034;-48
2023/03/02 01:31:14;;;;;;;0.30;0.30;;;;;;;5.24;90.43;101987.91;5009186;28;20046;-58
2023/03/02 01:33:40;;;;;;;1.20;1.10;;;;;;;5.19;90.68;101987.97;5008231;28;20041;-49
2023/03/02 01:36:06;;;;;;;0.95;0.95;;;;;;;5.26;90.93;101990.28;5009398;28;20033;-52
2023/03/02 01:38:31;;;;;;;0.77;0.60;;;;;;;5.17;90.71;101994.66;5010650;28;21992;-49
2023/03/02 01:40:57;;;;;;;0.20;0.20;;;;;;;5.15;90.08;101994.94;5010691;28;20192;-48
2023/03/02 01:43:22;;;;;;;0.85;0.68;;;;;;;5.14;89.66;101990.69;5006932;28;20038;-44
2023/03/02 01:46:13;;;;;;;0.98;0.98;;;;;;;5.18;90.14;101986.38;5009488;28;20037;-46
2023/03/02 01:48:51;;;;;;;0.88;0.88;;;;;;;5.14;90.43;101981.88;4996206;28;20038;-48
2023/03/02 01:51:26;;;;;;;0.50;0.47;;;;;;;5.17;90.61;101981.31;5005911;28;20053;-46
2023/03/02 01:54:02;;;;;;;0.87;0.70;;;;;;;5.09;89.90;101980.06;5007418;28;20041;-46
2023/03/02 01:56:33;;;;;;;0.82;0.82;;;;;;;5.16;90.34;101980.53;5009895;28;20113;-51
2023/03/02 01:59:04;;;;;;;0.75;0.75;;;;;;;5.18;90.32;101973.03;5009052;28;20026;-46
2023/03/02 02:01:32;;;;;;;0.40;0.40;;;;;;;5.19;90.41;101973.81;4998008;28;20034;-45
2023/03/02 02:03:57;;;;;;;0.30;0.30;;;;;;;5.17;90.63;101971.44;5002916;28;20489;-45
2023/03/02 02:06:29;;;;;;;0.82;0.82;;;;;;;5.16;90.77;101971.72;5010837;28;20117;-46
2023/03/02 02:08:57;;;;;;;0.40;0.40;;;;;;;5.08;90.28;101973.16;5010599;28;20048;-54
2023/03/02 02:11:23;;;;;;;2.75;1.40;;;;;;;4.99;90.36;101969.53;5008595;28;20033;-54
2023/03/02 02:13:54;;;;;;;0.30;0.30;;;;;;;4.97;90.91;101974.34;5009697;28;20045;-50
2023/03/02 02:16:20;;;;;;;0.77;0.65;;;;;;;4.98;90.66;101970.59;5006370;28;20025;-48
2023/03/02 02:18:46;;;;;;;0.50;0.50;;;;;;;5.00;90.71;101968.44;4992201;28;20064;-46
2023/03/02 02:21:12;;;;;;;2.22;1.17;;;;;;;4.85;90.97;101970.47;5009584;28;20040;-47
2023/03/02 02:23:59;;;;;;;0.63;0.63;;;;;;;4.94;91.36;101977.56;5008872;28;20037;-49
2023/03/02 02:26:36;;;;;;;0.52;0.52;;;;;;;4.92;90.76;101974.41;4998501;28;20624;-50
2023/03/02 02:29:11;;;;;;;0.90;0.45;;;;;;;4.78;91.16;101965.47;5004260;28;20842;-50
2023/03/02 02:31:52;;;;;;;0.30;0.30;;;;;;;4.80;91.82;101955.31;5000330;28;20029;-56
2023/03/02 02:34:22;;;;;;;1.15;0.88;;;;;;;4.92;91.35;101952.25;5003850;28;20034;-55
2023/03/02 02:36:55;;;;;;;0.50;0.50;;;;;;;4.99;90.88;101950.03;5000549;28;20038;-51
2023/03/02 02:39:27;;;;;;;0.77;0.77;;;;;;;5.02;91.28;101942.25;5007192;28;20124;-49
2023/03/02 02:41:55;;;;;;;0.65;0.65;;;;;;;4.93;90.99;101943.16;5010685;28;20119;-50
2023/03/02 02:44:21;;;;;;;0.60;0.60;;;;;;;4.92;91.46;101941.56;5006226;28;20032;-54
2023/03/02 02:46:47;;;;;;;0.75;0.75;;;;;;;4.93;90.52;101948.50;5009657;28;20038;-51
2023/03/02 02:49:16;;;;;;;0.43;0.43;;;;;;;4.85;91.25;101949.13;5005539;28;20030;-49
2023/03/02 02:51:42;;;;;;;0.45;0.45;;;;;;;4.76;91.48;101948.97;4995035;28;20044;-55
2023/03/02 02:54:16;;;;;;;1.55;0.73;;;;;;;4.57;91.74;101943.56;5003255;28;20548;-46
2023/03/02 02:56:43;;;;;;;4.03;0.80;;;;;;;4.70;92.48;101939.44;5003461;28;20096;-52
2023/03/02 02:59:18;;;;;;;0.60;0.60;;;;;;;4.78;91.81;101946.78;5006742;28;20477;-54
2023/03/02 03:01:46;;;;;;;1.65;0.85;;;;;;;4.74;91.68;101939.66;5008847;28;20034;-46
2023/03/02 03:04:17;;;;;;;0.30;0.30;;;;;;;4.72;91.71;101934.59;5004362;28;20022;-58
2023/03/02 03:06:54;;;;;;;0.40;0.40;;;;;;;4.78;90.97;101946.03;5008457;28;20132;-55
2023/03/02 03:09:21;;;;;;;0.30;0.30;;;;;;;4.51;91.58;101944.69;5000147;28;20679;-49
2023/03/02 03:11:51;;;;;;;0.45;0.45;;;;;;;4.60;92.08;101942.19;4997529;28;20481;-48
2023/03/02 03:14:21;;;;;;;0.70;0.70;;;;;;;4.62;91.38;101948.06;5007849;28;20061;-47
2023/03/02 03:16:49;;;;;;;;;;;;;;;4.63;91.76;101944.28;5007357;28;20040;-46
2023/03/02 03:19:21;;;;;;;0.30;0.30;;;;;;;4.73;91.40;101946.84;5005119;28;20024;-45
2023/03/02 03:21:50;;;;;;;0.20;0.20;;;;;;;4.66;90.97;101951.75;5008097;28;20037;-57
2023/03/02 03:24:17;;;;;;;0.75;0.40;;;;;;;4.68;91.20;101948.78;5008554;28;20069;-49
2023/03/02 03:26:44;;;;;;;0.85;0.85;;;;;;;4.72;91.02;101953.28;5001244;28;20048;-52
2023/03/02 03:29:11;;;;;;;0.52;0.52;;;;;;;4.57;90.87;101956.09;5005870;28;20052;-57
2023/03/02 03:31:37;;;;;;;0.73;0.47;;;;;;;4.62;91.17;101957.91;5008570;28;20040;-49
2023/03/02 03:34:04;;;;;;;0.50;0.50;;;;;;;4.62;91.06;101960.59;5004333;28;20121;-59
2023/03/02 03:36:34;;;;;;;0.65;0.65;;;;;;;4.59;90.87;101954.72;4997836;28;20370;-48
2023/03/02 03:39:01;;;;;;;1.23;1.13;;;;;;;4.65;90.50;101952.81;5002398;28;20497;-53
2023/03/02 03:41:28;;;;;;;0.50;0.50;;;;;;;4.59;90.35;101952.06;5007454;28;20084;-51
2023/03/02 03:43:54;;;;;;;0.55;0.55;;;;;;;4.70;90.54;101947.44;4995671;28;20030;-53
2023/03/02 03:46:20;;;;;;;0.55;0.45;;;;;;;4.68;90.62;101948.78;5005858;28;20488;-54
2023/03/02 03:48:46;;;;;;;0.80;0.63;;;;;;;4.64;90.27;101945.91;4997964;28;20030;-53
2023/03/02 03:51:13;;;;;;;1.42;1.33;;;;;;;4.51;90.61;101949.22;5004040;28;20549;-48
2023/03/02 03:53:39;;;;;;;0.65;0.65;;;;;;;4.41;90.38;101949.31;5008486;28;20033;-48
2023/03/02 03:56:06;;;;;;;0.50;0.50;;;;;;;4.32;90.72;101953.66;4999912;28;20034;-47
2023/03/02 03:58:32;;;;;;;0.40;0.40;;;;;;;4.40;90.85;101953.06;5004597;28;20030;-48
2023/03/02 04:00:57;;;;;;;1.58;1.15;;;;;;;4.27;91.08;101945.72;4999724;28;20033;-46
2023/03/02 04:03:24;;;;;;;0.50;0.50;;;;;;;4.32;90.77;101938.47;5001063;28;20032;-49
2023/03/02 04:05:50;;;;;;;0.50;0.50;;;;;;;4.18;92.18;101950.84;5006669;28;20026;-46
2023/03/02 04:08:16;;;;;;;0.63;0.63;;;;;;;4.27;92.31;101943.06;5003362;28;20123;-47
2023/03/02 04:10:43;;;;;;;0.55;0.50;;;;;;;4.27;91.34;101946.53;5003475;28;20021;-44
2023/03/02 04:13:09;;;;;;;0.30;0.30;;;;;;;4.20;91.96;101955.91;5005360;28;20027;-45
2023/03/02 04:15:35;;;;;;;0.52;0.52;;;;;;;4.30;91.78;101959.28;4996039;28;20040;-53
2023/03/02 04:18:01;;;;;;;0.77;0.43;;;;;;;4.41;90.76;101954.66;5005414;28;20033;-46
2023/03/02 04:20:28;;;;;;;0.47;0.47;;;;;;;4.45;90.37;101951.13;5007172;28;20073;-50
2023/03/02 04:22:55;;;;;;;0.50;0.50;;;;;;;4.44;90.80;101948.75;4994076;28;20038;-49
2023/03/02 04:25:24;;;;;;;0.47;0.47;;;;;;;4.28;90.85;101942.75;5000551;28;20029;-51
2023/03/02 04:27:53;;;;;;;0.38;0.38;;;;;;;4.35;90.86;101942.44;5009755;28;20030;-47
2023/03/02 04:30:23;;;;;;;0.30;0.30;;;;;;;4.50;89.78;101947.63;5011987;28;20045;-46
2023/03/02 04:32:49;;;;;;;0.82;0.82;;;;;;;4.41;90.26;101944.78;5006030;28;20041;-50
2023/03/02 04:35:15;;;;;;;0.50;0.50;;;;;;;4.21;90.46;101944.97;4993404;28;20026;-45
2023/03/02 04:37:43;;;;;;;3.88;1.17;;;;;;;4.23;91.20;101944.69;5003450;28;20032;-53
2023/03/02 04:40:11;;;;;;;1.38;0.75;;;;;;;4.18;91.16;101942.84;5005179;28;20072;-47
2023/03/02 04:42:36;;;;;;;0.77;0.77;;;;;;;4.02;90.67;101948.59;5013092;28;20374;-51
2023/03/02 04:45:02;;;;;;;0.55;0.55;;;;;;;4.08;91.45;101952.81;5012088;28;20037;-46
2023/03/02 04:47:27;;;;;;;1.85;1.45;;;;;;;4.07;91.85;101957.34;5007523;28;20038;-48
2023/03/02 04:49:53;;;;;;;0.30;0.30;;;;;;;4.03;91.59;101950.16;5002129;28;20105;-47
2023/03/02 04:52:20;;;;;;;0.75;0.75;;;;;;;4.04;92.21;101951.78;4998268;28;20022;-49
2023/03/02 04:54:46;;;;;;;0.75;0.57;;;;;;;4.03;92.48;101955.50;5003404;28;20049;-47
2023/03/02 04:57:11;;;;;;;0.77;0.77;;;;;;;4.11;92.30;101957.56;4992151;28;20034;-47
2023/03/02 04:59:37;;;;;;;0.40;0.40;;;;;;;4.15;92.27;101963.94;5010931;28;20530;-51
2023/03/02 05:02:04;;;;;;;0.60;0.60;;;;;;;3.90;92.67;101958.81;5001666;28;20044;-46
2023/03/02 05:04:29;;;;;;;1.30;0.88;;;;;;;3.99;92.74;101965.16;5007666;28;20481;-47
2023/03/02 05:06:56;;;;;;;0.60;0.60;;;;;;;4.03;92.08;101960.84;5001811;28;20209;-50
2023/03/02 05:09:26;;;;;;;1.65;0.45;;;;;;;3.98;92.31;101966.22;5010346;28;20022;-49
2023/03/02 05:11:53;;;;;;;0.85;0.82;;;;;;;3.97;92.33;101961.97;5011880;28;21718;-50
2023/03/02 05:14:20;;;;;;;0.47;0.47;;;;;;;3.97;92.20;101968.06;4998219;28;20386;-57
2023/03/02 05:16:45;;;;;;;0.98;0.45;;;;;;;4.10;92.20;101969.31;4999977;28;20044;-56
2023/03/02 05:19:14;;;;;;;1.05;1.02;;;;;;;4.05;92.70;101958.69;5010853;28;20034;-47
2023/03/02 05:22:00;;;;;;;0.63;0.63;;;;;;;3.91;92.23;101965.75;5006237;28;20036;-56
2023/03/02 05:24:25;;;;;;;1.65;0.50;;;;;;;3.71;93.32;101969.31;4987082;28;20046;-55
2023/03/02 05:26:51;;;;;;;3.03;1.40;;;;;;;3.64;93.09;101974.94;4988411;28;20052;-54
2023/03/02 05:29:16;;;;;;;0.70;0.70;;;;;;;3.71;93.83;101969.31;4989618;28;20050;-48
2023/03/02 05:31:43;;;;;;;0.75;0.75;;;;;;;3.86;92.79;101977.22;4989141;28;20070;-53
2023/03/02 05:34:12;;;;;;;0.77;0.45;;;;;;;3.72;93.05;101972.78;4989348;28;20433;-49
2023/03/02 05:36:38;;;;;;;0.90;0.90;;;;;;;3.73;93.25;101955.72;4980211;28;20403;-52
2023/03/02 05:39:05;;;;;;;0.30;0.30;;;;;;;3.84;93.44;101959.91;4985540;28;20058;-48
2023/03/02 05:41:31;;;;;;;0.50;0.50;;;;;;;3.87;93.39;101967.38;4984965;28;20085;-52
2023/03/02 05:43:56;;;;;;;1.08;1.08;;;;;;;4.03;93.25;101961.63;4984679;28;20041;-56
2023/03/02 05:46:22;;;;;;;2.15;1.25;;;;;;;4.04;92.86;101963.25;4985349;28;20042;-48
2023/03/02 05:48:48;;;;;;;1.40;0.88;;;;;;;4.17;92.92;101964.47;4968286;28;20039;-46
2023/03/02 05:51:14;;;;;;;0.63;0.55;;;;;;;4.12;92.55;101967.19;4989087;28;20095;-48
2023/03/02 05:53:39;;;;;;;0.82;0.63;;;;;;;3.90;92.69;101956.13;4988451;28;20121;-46
2023/03/02 05:56:05;;;;;;;0.98;0.82;;;;;;;3.88;93.26;101952.97;4986763;28;20133;-48
2023/03/02 05:58:31;;;;;;;2.92;0.60;;;;;;;3.95;93.65;101964.13;4979848;28;20038;-51
2023/03/02 06:00:57;;;;;;;0.30;0.30;;;;;;;4.04;92.89;101959.78;4987505;28;20544;-45
2023/03/02 06:03:22;;;;;;;0.52;0.52;;;;;;;3.99;92.48;101962.50;5002978;28;20036;-47
2023/03/02 06:05:49;;;;;;;0.52;0.52;;;;;;;3.87;92.65;101962.03;5005865;28;20678;-56
2023/03/02 06:08:20;;;;;;;0.57;0.57;;;;;;;4.02;92.58;101965.38;5008864;28;20041;-47
2023/03/02 06:10:49;;;;;;;1.38;0.95;;;;;;;4.11;92.79;101962.91;5005342;28;20092;-45
2023/03/02 06:13:15;;;;;;;1.95;1.08;;;;;;;4.14;92.38;101967.69;5005471;28;20088;-48
2023/03/02 06:15:41;;;;;;;0.77;0.77;;;;;;;4.13;92.30;101963.41;5009041;28;20030;-52
2023/03/02 06:18:07;;;;;;;0.63;0.63;;;;;;;3.96;93.22;101965.69;4998471;28;20574;-50
2023/03/02 06:20:33;;;;;;;0.68;0.68;;;;;;;3.98;93.21;101976.88;4997315;28;20041;-45
2023/03/02 06:22:58;;;;;;;0.57;0.57;;;;;;;4.09;93.16;101965.84;5007474;28;20517;-52
2023/03/02 06:25:24;;;;;;;0.50;0.50;;;;;;;4.14;92.87;101970.34;5004883;28;20037;-45
2023/03/02 06:27:52;;;;;;;0.70;0.70;;;;;;;4.04;92.89;101973.91;5001095;28;20037;-45
2023/03/02 06:30:21;;;;;;;0.90;0.63;;;;;;;4.12;93.27;101975.16;5004635;28;20036;-46
2023/03/02 06:32:49;;;;;;;1.20;1.10;;;;;;;4.17;92.72;101978.59;5001021;28;20076;-48
2023/03/02 06:35:15;;;;;;;0.80;0.80;;;;;;;4.25;92.96;101977.19;4987456;28;20038;-52
2023/03/02 06:37:41;;;;;;;0.90;0.85;;;;;;;4.23;92.04;101977.47;4994483;28;20061;-48
2023/03/02 06:40:12;;;;;;;1.58;1.02;;;;;;;4.24;92.31;101971.06;5001846;28;20084;-56
2023/03/02 06:42:38;;;;;;;0.57;0.57;;;;;;;4.20;92.46;101969.25;5003919;28;20121;-47
2023/03/02 06:45:05;;;;;;;1.20;1.10;;;;;;;4.22;92.92;101967.88;5004494;28;20548;-50
2023/03/02 06:47:32;;;;;;;1.00;1.00;;;;;;;4.27;91.94;101964.38;5000135;28;20416;-46
2023/03/02 06:49:58;;;;;;;2.50;0.80;;;;;;;4.28;92.40;101966.75;4985352;28;20101;-48
2023/03/02 06:52:25;;;;;;;0.60;0.60;;;;;;;4.22;92.86;101967.88;4984353;28;20405;-52
2023/03/02 06:54:50;;;;;;;3.33;0.65;;;;;;;4.25;92.37;101962.00;4981792;28;20073;-49
2023/03/02 06:57:16;;;;;;;0.30;0.30;;;;;;;4.29;93.23;101959.56;5008988;28;20073;-46
2023/03/02 06:59:41;;;;;;;0.70;0.68;;;;;;;4.36;92.60;101960.81;5007387;28;20034;-55
2023/03/02 07:02:09;;;;;;;0.52;0.52;;;;;;;4.29;93.16;101963.03;4994786;28;20062;-54
2023/03/02 07:04:34;;;;;;;0.75;0.75;;;;;;;4.24;92.71;101965.72;4997775;28;20479;-47
2023/03/02 07:07:00;;;;;;;0.40;0.40;;;;;;;4.26;93.48;101955.56;5010100;28;20104;-49
2023/03/02 07:09:25;;;;;;;1.38;1.02;;;;;;;4.19;93.60;101959.66;4997704;28;20039;-49
2023/03/02 07:11:51;;;;;;;0.73;0.73;;;;;;;4.20;93.29;101954.03;5007892;28;20714;-46
2023/03/02 07:14:16;;;;;;;0.30;0.30;;;;;;;4.28;93.45;101957.97;5006066;28;20495;-49
2023/03/02 07:16:42;;;;;;;1.42;0.73;;;;;;;4.34;93.65;101956.84;4997368;28;20084;-53
2023/03/02 07:19:12;;;;;;;0.40;0.40;;;;;;;4.31;93.31;101955.56;5001264;28;20045;-49
2023/03/02 07:21:38;;;;;;;1.23;1.00;;;;;;;4.10;94.22;101961.31;4997591;28;20033;-50
2023/03/02 07:24:04;;;;;;;1.27;0.75;;;;;;;3.96;95.26;101958.50;5005953;28;20452;-50
2023/03/02 07:26:29;;;;;;;0.75;0.75;;;;;;;4.00;94.86;101959.53;5001347;28;20092;-51
2023/03/02 07:28:58;;;;;;;0.52;0.52;;;;;;;3.82;95.86;101954.88;4999701;28;20052;-51
2023/03/02 07:31:24;;;;;;;0.60;0.60;;;;;;;3.97;95.42;101960.06;5003280;28;20037;-46
2023/03/02 07:33:49;;;;;;;0.90;0.73;;;;;;;3.92;96.02;101948.66;5004503;28;20085;-46
2023/03/02 07:36:15;;;;;;;0.88;0.88;;;;;;;3.96;96.21;101949.69;5005783;28;20034;-50
2023/03/02 07:38:40;;;;;;;0.30;0.30;;;;;;;3.91;95.99;101941.75;4995876;28;20491;-54
2023/03/02 07:41:08;;;;;;;1.10;0.50;;;;;;;4.01;96.69;101944.31;4993623;28;20032;-45
2023/03/02 07:43:35;;;;;;;1.15;1.05;;;;;;;4.06;96.51;101949.63;5005136;28;20030;-50
2023/03/02 07:46:03;;;;;;;3.70;0.73;;;;;;;4.05;95.96;101938.16;4995175;28;20042;-46
2023/03/02 07:48:29;;;;;;;0.55;0.55;;;;;;;4.14;95.81;101943.72;5001124;28;20029;-46
2023/03/02 07:51:02;;;;;;;0.50;0.50;;;;;;;4.31;96.35;101939.56;5002630;28;20164;-48
2023/03/02 07:53:28;;;;;;;0.88;0.88;;;;;;;4.43;95.67;101945.28;4998831;28;20034;-53
2023/03/02 07:55:54;;;;;;;1.63;1.02;;;;;;;4.33;95.93;101944.59;5000791;28;20049;-49
2023/03/02 07:58:20;;;;;;;0.32;0.32;;;;;;;4.38;95.65;101940.00;4993263;28;20027;-52
2023/03/02 08:00:45;;;;;;;0.52;0.52;;;;;;;4.36;95.87;101939.50;4997952;28;20037;-49
2023/03/02 08:03:11;;;;;;;0.70;0.70;;;;;;;4.44;95.33;101948.75;5007671;28;20060;-51
2023/03/02 08:05:36;;;;;;;0.45;0.45;;;;;;;4.38;95.20;101941.88;5004303;28;20040;-54
2023/03/02 08:08:02;;;;;;;0.55;0.55;;;;;;;4.31;95.46;101936.88;4985630;28;20076;-51
2023/03/02 08:10:27;;;;;;;0.75;0.60;;;;;;;4.30;95.07;101940.63;4992460;28;20031;-49
2023/03/02 08:12:53;;;;;;;0.60;0.60;;;;;;;4.33;95.84;101941.94;5003135;28;20037;-49
2023/03/02 08:15:18;;;;;;;1.25;0.93;;;;;;;4.32;95.31;101945.66;5004865;28;20081;-50
2023/03/02 08:17:44;;;;;;;0.93;0.93;;;;;;;4.36;95.80;101944.03;5002897;28;20489;-51
2023/03/02 08:20:10;;;;;;;0.30;0.30;;;;;;;4.33;95.39;101941.94;5011594;28;20420;-53
2023/03/02 08:22:36;;;;;;;2.70;0.95;;;;;;;4.34;95.23;101941.66;4999288;28;20514;-49
2023/03/02 08:25:02;;;;;;;1.27;0.45;;;;;;;4.43;95.34;101944.50;5006590;28;20034;-49
2023/03/02 08:27:28;;;;;;;0.30;0.30;;;;;;;4.52;95.09;101940.16;5002455;28;20049;-50
2023/03/02 08:29:53;;;;;;;0.30;0.30;;;;;;;4.46;94.65;101938.59;5008556;28;20065;-49
2023/03/02 08:32:19;;;;;;;0.55;0.55;;;;;;;4.38;95.05;101942.69;5005943;28;20037;-49
2023/03/02 08:34:44;;;;;;;0.50;0.50;;;;;;;4.51;94.88;101946.53;5001434;28;20045;-49
2023/03/02 08:37:13;;;;;;;0.50;0.50;;;;;;;4.43;95.78;101937.28;4998297;28;20045;-53
2023/03/02 08:39:38;;;;;;;0.43;0.43;;;;;;;4.37;96.13;101945.63;5006201;28;20037;-50
2023/03/02 08:42:04;;;;;;;0.65;0.65;;;;;;;4.25;95.86;101937.22;5009769;28;20377;-49
2023/03/02 08:44:29;;;;;;;0.88;0.88;;;;;;;4.43;95.55;101937.28;5004985;28;20049;-52
2023/03/02 08:46:55;;;;;;;0.30;0.30;;;;;;;4.28;95.87;101941.97;5006107;28;20694;-53
2023/03/02 08:49:20;;;;;;;0.30;0.30;;;;;;;4.44;95.92;101943.41;5005050;28;20034;-53
2023/03/02 08:51:47;;;;;;;1.67;0.93;;;;;;;4.52;95.06;101956.16;4996708;28;20034;-52
2023/03/02 08:54:13;;;;;;;0.47;0.47;;;;;;;4.60;94.42;101950.19;5012412;28;20108;-51
2023/03/02 08:56:40;;;;;;;0.60;0.45;;;;;;;4.57;94.61;101954.22;5011605;28;20467;-53
2023/03/02 08:59:11;;;;;;;2.13;1.27;;;;;;;4.49;94.47;101932.72;5004850;28;20058;-50
2023/03/02 09:01:37;;;;;;;0.47;0.47;;;;;;;4.49;94.58;101943.38;5005058;28;20042;-53
2023/03/02 09:04:05;;;;;;;0.35;0.35;;;;;;;4.66;94.33;101937.59;5006002;28;20032;-50
2023/03/02 09:06:33;;;;;;;0.55;0.55;;;;;;;4.58;94.05;101941.69;5008100;28;20056;-51
2023/03/02 09:08:59;;;;;;;1.95;0.77;;;;;;;4.73;94.10;101933.50;5009134;28;20026;-52
2023/03/02 09:11:25;;;;;;;0.60;0.60;;;;;;;4.69;93.08;101931.69;5005670;28;20044;-51
2023/03/02 09:13:50;;;;;;;0.43;0.43;;;;;;;4.67;93.41;101928.50;5007679;28;20026;-54
2023/03/02 09:16:16;;;;;;;1.05;1.05;;;;;;;4.61;93.50;101914.44;5007730;28;20481;-51
2023/03/02 09:18:41;;;;;;;0.40;0.40;;;;;;;4.73;93.38;101925.50;5001044;28;20498;-50
2023/03/02 09:21:07;;;;;;;0.20;0.20;;;;;;;4.76;93.98;101932.97;5008271;28;20057;-52
2023/03/02 09:23:35;;;;;;;1.05;0.75;;;;;;;4.80;93.54;101917.19;5011642;28;20030;-50
2023/03/02 09:26:01;;;;;;;0.30;0.30;;;;;;;4.82;93.28;101921.13;5010871;28;20045;-52
2023/03/02 09:28:27;;;;;;;0.30;0.30;;;;;;;4.83;92.94;101924.59;5001269;28;20050;-54
2023/03/02 09:30:56;;;;;;;0.75;0.68;;;;;;;4.62;93.19;101918.72;4985847;28;20062;-52
2023/03/02 09:33:22;;;;;;;0.55;0.55;;;;;;;4.71;93.45;101921.53;4990378;28;20492;-51
2023/03/02 09:35:47;;;;;;;0.93;0.93;;;;;;;4.77;93.35;101918.53;5007730;28;20029;-53
2023/03/02 09:38:17;;;;;;;0.93;0.93;;;;;;;4.70;93.60;101922.63;5011723;28;20569;-49
2023/03/02 09:40:49;;;;;;;0.60;0.60;;;;;;;4.71;93.46;101921.53;5004655;28;20053;-49
2023/03/02 09:43:21;;;;;;;0.30;0.30;;;;;;;4.68;93.52;101933.59;4998660;28;20050;-49
2023/03/02 09:46:09;;;;;;;0.45;0.45;;;;;;;4.65;93.94;101928.81;5011094;28;20042;-50
2023/03/02 09:48:37;;;;;;;0.50;0.50;;;;;;;4.72;93.75;101936.47;5005974;28;20042;-51
2023/03/02 09:51:24;;;;;;;0.35;0.35;;;;;;;4.68;94.00;101928.25;4994425;28;20053;-49
2023/03/02 09:54:17;;;;;;;0.77;0.77;;;;;;;4.63;93.08;101919.50;5011153;28;20049;-49
2023/03/02 09:56:48;;;;;;;0.50;0.50;;;;;;;4.81;93.30;101919.56;4992914;28;20057;-56
2023/03/02 09:59:23;;;;;;;;;;;;;;;4.81;91.77;101908.88;4992674;28;20038;-53
2023/03/02 10:02:28;;;;;;;0.32;0.32;;;;;;;4.88;92.70;101913.88;5002898;28;20392;-54
2023/03/02 10:04:56;;;;;;;0.40;0.40;;;;;;;4.92;92.02;101928.22;5002225;28;20045;-54
2023/03/02 10:07:27;;;;;;;0.68;0.68;;;;;;;4.79;91.80;101924.38;5021596;22;20034;-58
2023/03/02 10:09:54;;;;;;;1.20;1.02;;;;;;;4.81;92.46;101924.09;4962401;28;20093;-56
2023/03/02 10:12:58;;;;;;;0.60;0.60;;;;;;;4.96;92.57;101929.25;4984710;28;20034;-60
2023/03/02 10:15:53;;;;;;;0.20;0.20;;;;;;;5.11;92.39;101927.19;4982639;28;20057;-55
2023/03/02 10:18:44;;;;;;;0.43;0.35;;;;;;;5.21;91.94;101919.06;4971349;28;20073;-54
2023/03/02 10:21:42;;;;;;;0.60;0.60;;;;;;;5.28;92.00;101930.16;4982050;28;20046;-58
2023/03/02 10:24:30;;;;;;;0.70;0.70;;;;;;;5.23;92.34;101930.25;4974712;28;20050;-57
2023/03/02 10:27:01;;;;;;;0.65;0.65;;;;;;;5.28;92.29;101924.03;4978343;28;20038;-59
2023/03/02 10:29:41;;;;;;;0.50;0.50;;;;;;;5.33;91.96;101922.09;4964195;28;20069;-56
2023/03/02 10:32:41;;;;;;;0.30;0.30;;;;;;;5.43;90.66;101924.63;4973240;28;20168;-54
2023/03/02 10:35:15;;;;;;;1.58;0.82;;;;;;;5.40;91.04;101927.09;4889413;29;20052;-56
2023/03/02 10:37:40;;;;;;;1.10;0.88;;;;;;;5.56;90.54;101923.09;4891651;29;20048;-59
2023/03/02 10:40:22;;;;;;;0.90;0.68;;;;;;;5.48;91.63;101924.56;4905950;29;20602;-57
2023/03/02 10:42:48;;;;;;;0.43;0.43;;;;;;;5.50;91.30;101921.59;4906695;29;20047;-58
2023/03/02 10:45:22;;;;;;;0.98;0.70;;;;;;;5.62;91.18;101919.28;4908285;29;20407;-57
2023/03/02 10:48:09;;;;;;;1.67;1.55;;;;;;;5.64;90.74;101919.78;4909682;29;20055;-55
2023/03/02 10:50:35;;;;;;;0.68;0.68;;;;;;;5.63;90.88;101920.88;4888067;29;20104;-57
2023/03/02 10:53:01;;;;;;;0.60;0.60;;;;;;;5.58;91.06;101922.81;4906935;29;20426;-56
2023/03/02 10:55:27;;;;;;;0.30;0.30;;;;;;;5.60;91.60;101918.78;4911139;29;20043;-56
2023/03/02 10:58:06;;;;;;;0.32;0.32;;;;;;;5.52;91.49;101922.09;4907288;29;20049;-57
2023/03/02 11:00:33;;;;;;;3.50;0.93;;;;;;;5.49;91.65;101917.34;4903472;29;20040;-55
2023/03/02 11:03:19;;;;;;;0.85;0.85;;;;;;;5.45;92.21;101922.47;4905903;29;20119;-54
2023/03/02 11:05:44;;;;;;;0.52;0.52;;;;;;;5.42;91.63;101915.03;4905867;29;20056;-56
2023/03/02 11:08:18;;;;;;;0.80;0.80;;;;;;;5.36;92.06;101907.38;4904321;29;20039;-56
2023/03/02 11:10:51;;;;;;;0.98;0.57;;;;;;;5.36;92.13;101905.50;4908724;29;20076;-54
2023/03/02 11:13:37;;;;;;;0.73;0.45;;;;;;;5.47;92.01;101909.63;4983860;28;20042;-51
2023/03/02 11:16:21;;;;;;;0.60;0.60;;;;;;;5.39;91.85;101910.28;4982020;28;20035;-56
2023/03/02 11:18:58;;;;;;;0.95;0.63;;;;;;;5.48;91.67;101908.53;4963487;28;20041;-55
2023/03/02 11:22:01;;;;;;;1.25;0.60;;;;;;;5.46;91.04;101905.34;4980238;28;20126;-56
2023/03/02 11:24:44;;;;;;;0.35;0.35;;;;;;;5.41;91.93;101900.09;4985325;28;20527;-60
2023/03/02 11:27:21;;;;;;;0.30;0.30;;;;;;;5.53;91.56;101892.41;4970978;28;20035;-56
2023/03/02 11:30:17;;;;;;;0.57;0.57;;;;;;;5.59;91.29;101895.03;4977362;28;20035;-57
2023/03/02 11:32:52;;;;;;;0.35;0.35;;;;;;;5.31;92.14;101891.41;4979969;28;20035;-56
2023/03/02 11:35:48;;;;;;;2.42;0.77;;;;;;;5.51;92.92;101893.81;4974687;28;20038;-54
2023/03/02 11:38:23;;;;;;;0.95;0.70;;;;;;;5.42;92.89;101887.50;4923833;29;20048;-58
2023/03/02 11:40:56;;;;;;;1.23;1.02;;;;;;;5.49;91.84;101896.78;4933749;29;20059;-56
2023/03/02 11:43:21;;;;;;;0.95;0.95;;;;;;;5.65;91.68;101886.66;4931347;29;20087;-55